Aérodrome :
LOGIN :

S'inscrire | Disclaimer

   EN    FR    IT 

 










Légende :    VFR   VFR Marginal   IFR   IFR Intensif   IFR Très Intensif
Visi : 
Plafond : 
>= 8 km
>= 3000ft
5 à 8 km
1000 à 3000 ft
1500m à 5 km
500 à 1000 ft
800 à 1500m
200 à 500 ft
< 800m
< 200 ft
Symboles :   Orages  Brouillard  Fortes neiges  Fortes précipitations  Vent > 20 kt
SIGMETs :   Divers  Orages  Givrage  Turbulence  Onde Orograph.  Cendres Volcan.







- Altitude de l'aérodrome : 1300 ft
- Code IATA : LIG
- Voir les cartes d'approche


LFBL - Limoges

DERNIER METAR :
  • 230000Z AUTO VRB02KT 9999 BKN041 OVC200 08/08 Q1026 NOSIG

METARs EXPIRÉS :
  • 222330Z AUTO VRB03KT CAVOK 08/07 Q1027 NOSIG
  • 222300Z AUTO VRB03KT CAVOK 08/08 Q1027 NOSIG
  • 222230Z AUTO 27004KT 240V300 CAVOK 08/08 Q1027 NOSIG
  • 222200Z AUTO 26003KT CAVOK 08/08 Q1026 NOSIG
  • 222130Z AUTO 26004KT 230V290 CAVOK 08/08 Q1026 NOSIG

TAF TAF LFBL
Valide du 23 à 00h jusqu'au 24 à 00h UTC


222300Z 2300/2324 VRB03KT CAVOK
TEMPO 2302/2307 3000 BR BKN003
PROB30
TEMPO 2304/2306 0500 FG VV///
BECMG 2307/2309 BKN030
ATIS : +33 5 55 48 40 37
Pas de NOTAMs connus pour ce terrain.



MET'MAP, la Météo Aéronautique d'un coup d'oeil ! - Copyright ORBIFLY Décembre 2007 - Disclaimer

ORBIFLY MET'MAP TEAM :

Programmation & Développement : Alexandra Zaïnal
Conception & Développement : Baudouin d'Aumeries
Co-Programmation & Développement : Marc-Olivier Méhu
Soutien technique & logistique : Manuel Goepfert

Contact : metmap@orbifly.com




SOURCES & CREDITS :

   NOAA